Conmar Elbe — 5BQU3 — position and weather

sailwx.info

Track history (hours):
 
Tides and Currents Weather Stations Pressure Air Temp Water Temp Dewpoint Dewpoint Depression Visibility Wind Speed Wind Dir Waves Ship Positions

Conmar Elbe

Last reported at 2018-Feb-19 15:57 UTC. Time now 2018-Feb-19 16:17 UTC.
Position N 49°03' W 005°19'.

Length 133 m; draft 7 m.

Type: Ship (hazmat cat A). MMSI: 209724000.

Date/timePositionNaut miles runAvg speedWind from/ knotsBaromVisibWave heightAir tempDewpointWater temp
2018-Feb-19 15:57N 49°03' W 005°19'2114.9
2018-Feb-19 14:33N 49°15' W 004°53'216.1
2018-Feb-19 14:26N 49°16' W 004°51'1316.4
2018-Feb-19 13:39N 49°24' W 004°36'5515.9
2018-Feb-19 10:11N 49°50' W 003°20'314.1
2018-Feb-19 09:58N 49°52' W 003°16'2213.3
2018-Feb-19 08:19N 49°59' W 002°44'413.6
2018-Feb-19 08:00N 50°01' W 002°37'814.0
2018-Feb-19 07:25N 50°03' W 002°25'1315.1
2018-Feb-19 06:32N 50°06' W 002°05'116.2
2018-Feb-19 06:30N 50°06' W 002°04'816.7
2018-Feb-19 06:00N 50°09' W 001°52'917.7
2018-Feb-19 05:30N 50°12' W 001°39'918.3
2018-Feb-19 05:00N 50°15' W 001°26'3918.6
2018-Feb-19 02:56N 50°25' W 000°27'817.3
2018-Feb-19 02:30N 50°27' W 000°16'916.6
2018-Feb-19 02:00N 50°29' W 000°03'915.9
2018-Feb-19 01:26N 50°31' E 000°11'915.2
2018-Feb-19 00:49N 50°33' E 000°25'514.8
2018-Feb-19 00:30N 50°34' E 000°32'714.5
2018-Feb-19 00:00N 50°38' E 000°42'714.3
2018-Feb-18 23:30N 50°42' E 000°51'714.5
2018-Feb-18 23:00N 50°46' E 001°01'815.4
2018-Feb-18 22:29N 50°51' E 001°11'816.6
2018-Feb-18 22:00N 50°56' E 001°20'918.6
2018-Feb-18 21:30N 51°03' E 001°30'918.9
2018-Feb-18 21:00N 51°10' E 001°40'918.2
2018-Feb-18 20:30N 51°17' E 001°50'917.2
2018-Feb-18 20:00N 51°24' E 001°57'816.4
2018-Feb-18 19:31N 51°30' E 002°06'815.6
2018-Feb-18 18:59N 51°36' E 002°15'715.2
2018-Feb-18 18:30N 51°42' E 002°23'815.1
2018-Feb-18 17:59N 51°47' E 002°31'2714.1
2018-Feb-18 16:04N 52°02' E 003°08'214.6
2018-Feb-18 15:54N 52°02' E 003°12'614.7
2018-Feb-18 15:27N 52°03' E 003°23'714.6
2018-Feb-18 15:00N 52°03' E 003°34'714.7
2018-Feb-18 14:30N 52°03' E 003°45'613.0
2018-Feb-18 14:01N 52°02' E 003°56'714.5
2018-Feb-18 13:31N 51°59' E 004°06'713.7
2018-Feb-18 13:00N 51°55' E 004°15'510.5
2018-Feb-18 12:30N 51°54' E 004°24'1 2.7
2018-Feb-18 12:00N 51°53' E 004°25'0 0.0
2018-Feb-18 11:29N 51°53' E 004°25'0 0.0
2018-Feb-18 10:59N 51°53' E 004°25'0 0.0
2018-Feb-18 10:29N 51°53' E 004°25'0 0.0
2018-Feb-18 09:59N 51°53' E 004°25'0 0.0
2018-Feb-18 09:29N 51°53' E 004°25'0 0.0
2018-Feb-18 08:59N 51°53' E 004°25'0 0.0
2018-Feb-18 08:29N 51°53' E 004°25'0 0.0
2018-Feb-18 07:59N 51°53' E 004°25'0 0.0
2018-Feb-18 07:29N 51°53' E 004°25'0 0.0
2018-Feb-18 06:59N 51°53' E 004°25'0 0.0
2018-Feb-18 06:29N 51°53' E 004°25'0 0.0
2018-Feb-18 05:59N 51°53' E 004°25'0 0.0
2018-Feb-18 05:29N 51°53' E 004°25'0 0.0
2018-Feb-18 04:59N 51°53' E 004°25'0 0.0
2018-Feb-18 04:29N 51°53' E 004°25'0 0.0
2018-Feb-18 03:59N 51°53' E 004°25'0 0.0
2018-Feb-18 03:29N 51°53' E 004°25'0 0.0
2018-Feb-18 02:59N 51°53' E 004°25'0 0.0
2018-Feb-18 02:29N 51°53' E 004°25'0 0.0
2018-Feb-18 01:59N 51°53' E 004°25'0 0.0
2018-Feb-18 01:29N 51°53' E 004°25'0 0.0
2018-Feb-18 00:59N 51°53' E 004°25'0 0.0
2018-Feb-18 00:29N 51°53' E 004°25'0 0.0
2018-Feb-17 23:59N 51°53' E 004°25'0 0.0
2018-Feb-17 23:29N 51°53' E 004°25'0 0.0
2018-Feb-17 22:59N 51°53' E 004°25'0 0.0
2018-Feb-17 22:29N 51°53' E 004°25'0 0.0
2018-Feb-17 21:59N 51°53' E 004°25'0 0.0
2018-Feb-17 21:29N 51°53' E 004°25'0 0.0
2018-Feb-17 20:59N 51°53' E 004°25'0 0.4
2018-Feb-17 20:30N 51°53' E 004°25'1 1.3
2018-Feb-17 20:00N 51°53' E 004°24'4 8.7
2018-Feb-17 19:30N 51°54' E 004°17'611.9
2018-Feb-17 19:00N 51°57' E 004°09'612.5
2018-Feb-17 18:30N 51°60' E 004°00'714.5
2018-Feb-17 18:00N 51°59' E 003°48'2 4.6
2018-Feb-17 17:30N 51°57' E 003°46'0 0.1
2018-Feb-17 17:00N 51°57' E 003°46'0 0.0
2018-Feb-17 16:30N 51°57' E 003°46'0 0.1
2018-Feb-17 16:00N 51°57' E 003°46'0 0.1
2018-Feb-17 15:30N 51°57' E 003°46'0 0.0
2018-Feb-17 14:57N 51°57' E 003°46'0 0.0
2018-Feb-17 14:24N 51°57' E 003°46'0 0.1
2018-Feb-17 14:00N 51°57' E 003°46'1 2.4
2018-Feb-17 13:30N 51°58' E 003°45'811.9
2018-Feb-17 12:52N 51°57' E 003°32'3 7.2
2018-Feb-17 12:30N 51°56' E 003°28'3 6.9
2018-Feb-17 12:00N 51°55' E 003°23'36 9.2
2018-Feb-17 08:05N 51°41' E 002°30'1 9.8
2018-Feb-17 07:58N 51°40' E 002°28'510.0
2018-Feb-17 07:29N 51°37' E 002°23'510.3
2018-Feb-17 07:00N 51°33' E 002°17'510.7
2018-Feb-17 06:30N 51°29' E 002°11'611.2
2018-Feb-17 06:01N 51°25' E 002°05'4 8.8
2018-Feb-17 05:30N 51°25' E 001°58'510.9
2018-Feb-17 05:00N 51°28' E 001°51'511.0
2018-Feb-17 04:30N 51°29' E 001°42'611.9
2018-Feb-17 04:00N 51°27' E 001°33'4 8.4
2018-Feb-17 03:30N 51°27' E 001°26'815.6
2018-Feb-17 03:00N 51°29' E 001°14'612.5
2018-Feb-17 02:30N 51°29' E 001°04'714.7
2018-Feb-17 02:01N 51°29' E 000°52'815.5
2018-Feb-17 01:30N 51°30' E 000°40'612.9
2018-Feb-17 01:01N 51°30' E 000°29'510.8
2018-Feb-17 00:31N 51°27' E 000°22'2 3.4
2018-Feb-17 00:01N 51°28' E 000°20'0 0.0
2018-Feb-16 23:30N 51°28' E 000°20'0 0.0
2018-Feb-16 23:00N 51°28' E 000°20'0 0.0
2018-Feb-16 22:30N 51°28' E 000°20'0 0.0
2018-Feb-16 22:00N 51°28' E 000°20'0 0.0
2018-Feb-16 21:31N 51°28' E 000°20'0 0.0
2018-Feb-16 21:01N 51°28' E 000°20'0 0.0
2018-Feb-16 20:31N 51°28' E 000°20'0 0.0
2018-Feb-16 20:00N 51°28' E 000°20'0 0.0
2018-Feb-16 19:31N 51°28' E 000°20'0 0.0
2018-Feb-16 19:01N 51°28' E 000°20'0 0.0
2018-Feb-16 18:30N 51°28' E 000°20'0 0.0
2018-Feb-16 18:01N 51°28' E 000°20'0 0.0
2018-Feb-16 17:30N 51°28' E 000°20'0 0.0
2018-Feb-16 17:00N 51°28' E 000°20'0 0.0
2018-Feb-16 16:30N 51°28' E 000°20'0 0.0
2018-Feb-16 16:01N 51°28' E 000°20'0 0.0
2018-Feb-16 15:30N 51°28' E 000°20'0 0.0
2018-Feb-16 15:00N 51°28' E 000°20'0 0.1
2018-Feb-16 14:31N 51°28' E 000°20'3 5.9
2018-Feb-16 14:01N 51°27' E 000°25'713.1
2018-Feb-16 13:31N 51°30' E 000°34'815.6
2018-Feb-16 13:00N 51°29' E 000°46'815.9
2018-Feb-16 12:30N 51°29' E 000°59'816.5
2018-Feb-16 12:01N 51°29' E 001°12'917.0
2018-Feb-16 11:30N 51°28' E 001°26'714.2
2018-Feb-16 11:01N 51°23' E 001°33'815.3
2018-Feb-16 10:31N 51°16' E 001°38'714.9
2018-Feb-16 10:00N 51°08' E 001°40'714.3
2018-Feb-16 09:30N 51°02' E 001°35'714.4
2018-Feb-16 09:00N 50°57' E 001°27'713.6
2018-Feb-16 08:30N 50°50' E 001°23'714.1
2018-Feb-16 08:00N 50°44' E 001°20'714.7
2018-Feb-16 07:30N 50°39' E 001°12'815.0
2018-Feb-16 06:59N 50°33' E 001°03'1214.6
2018-Feb-16 06:09N 50°28' E 000°45'215.2
2018-Feb-16 06:00N 50°28' E 000°42'715.1
2018-Feb-16 05:30N 50°26' E 000°31'814.7
2018-Feb-16 04:59N 50°24' E 000°19'714.3
2018-Feb-16 04:30N 50°22' E 000°09'814.3
2018-Feb-16 03:56N 50°20' W 000°04'614.3
2018-Feb-16 03:30N 50°19' W 000°13'2813.7
2018-Feb-16 01:28N 50°10' W 000°55'613.7
2018-Feb-16 01:00N 50°08' W 001°04'714.1
2018-Feb-16 00:30N 50°06' W 001°15'714.5
2018-Feb-16 00:00N 50°04' W 001°25'714.8
2018-Feb-15 23:30N 50°02' W 001°36'715.0
2018-Feb-15 23:00N 49°60' W 001°48'1315.8
2018-Feb-15 22:11N 49°56' W 002°07'316.4
2018-Feb-15 22:00N 49°55' W 002°12'1016.5
2018-Feb-15 21:22N 49°52' W 002°27'616.5
2018-Feb-15 20:59N 49°51' W 002°36'816.6
2018-Feb-15 20:30N 49°48' W 002°48'14915.1
2018-Feb-15 10:38N 48°16' W 005°47'56314.6
2018-Feb-13 20:11N 39°21' W 009°52'314.5
2018-Feb-13 20:00N 39°19' W 009°52'714.9
2018-Feb-13 19:30N 39°11' W 009°52'714.5
2018-Feb-13 19:00N 39°04' W 009°51'714.5
2018-Feb-13 18:30N 38°57' W 009°51'914.6
2018-Feb-13 17:55N 38°48' W 009°51'914.7
2018-Feb-13 17:18N 38°39' W 009°50'513.9
2018-Feb-13 16:57N 38°36' W 009°46'714.6
2018-Feb-13 16:30N 38°32' W 009°39'714.6
2018-Feb-13 16:00N 38°28' W 009°31'714.8
2018-Feb-13 15:30N 38°23' W 009°24'714.5
2018-Feb-13 15:00N 38°21' W 009°15'815.1
2018-Feb-13 14:30N 38°21' W 009°06'714.7
2018-Feb-13 14:00N 38°26' W 008°58'612.1
2018-Feb-13 13:30N 38°31' W 008°53'1 0.3
2018-Feb-13 10:18N 38°31' W 008°52'0 0.0
2018-Feb-13 09:52N 38°31' W 008°52'0 0.0
2018-Feb-13 09:26N 38°31' W 008°52'0 0.0
2018-Feb-13 07:05N 38°31' W 008°52'0 2.7
2018-Feb-13 07:00N 38°31' W 008°53'510.1
2018-Feb-13 06:30N 38°28' W 008°58'611.3
2018-Feb-13 06:00N 38°22' W 009°00'612.5
2018-Feb-13 05:30N 38°16' W 009°02'612.9
2018-Feb-13 05:00N 38°10' W 009°04'713.2
2018-Feb-13 04:30N 38°04' W 009°06'713.3
2018-Feb-13 04:00N 37°57' W 009°09'815.3
2018-Feb-13 03:30N 37°50' W 009°11'815.1
2018-Feb-13 03:00N 37°43' W 009°14'20412.0
2018-Feb-12 09:58N 35°58' W 005°35'714.4
2018-Feb-12 09:30N 35°60' W 005°28'713.4
2018-Feb-12 09:00N 36°02' W 005°20'226 8.2
2018-Feb-11 05:19N 37°31' W 001°00'22111.1
2018-Feb-10 09:28N 36°01' W 005°12'714.9
2018-Feb-10 09:00N 35°59' W 005°21'714.4
2018-Feb-10 08:31N 35°57' W 005°29'  
Track history (hours):
 
Tides and Currents Weather Stations Pressure Air Temp Water Temp Dewpoint Dewpoint Depression Visibility Wind Speed Wind Dir Waves Ship Positions

Conmar Elbe

Last reported at 2018-Feb-19 15:57 UTC. Time now 2018-Feb-19 16:17 UTC.
Position N 49°03' W 005°19'.

Length 133 m; draft 7 m.

Type: Ship (hazmat cat A). MMSI: 209724000.

Date/timePositionNaut miles runAvg speedWind from/ knotsBaromVisibWave heightAir tempDewpointWater temp
2018-Feb-19 15:57N 49°03' W 005°19'2114.9
2018-Feb-19 14:33N 49°15' W 004°53'216.1
2018-Feb-19 14:26N 49°16' W 004°51'1316.4
2018-Feb-19 13:39N 49°24' W 004°36'5515.9
2018-Feb-19 10:11N 49°50' W 003°20'314.1
2018-Feb-19 09:58N 49°52' W 003°16'2213.3
2018-Feb-19 08:19N 49°59' W 002°44'413.6
2018-Feb-19 08:00N 50°01' W 002°37'814.0
2018-Feb-19 07:25N 50°03' W 002°25'1315.1
2018-Feb-19 06:32N 50°06' W 002°05'116.2
2018-Feb-19 06:30N 50°06' W 002°04'816.7
2018-Feb-19 06:00N 50°09' W 001°52'917.7
2018-Feb-19 05:30N 50°12' W 001°39'918.3
2018-Feb-19 05:00N 50°15' W 001°26'3918.6
2018-Feb-19 02:56N 50°25' W 000°27'817.3
2018-Feb-19 02:30N 50°27' W 000°16'916.6
2018-Feb-19 02:00N 50°29' W 000°03'915.9
2018-Feb-19 01:26N 50°31' E 000°11'915.2
2018-Feb-19 00:49N 50°33' E 000°25'514.8
2018-Feb-19 00:30N 50°34' E 000°32'714.5
2018-Feb-19 00:00N 50°38' E 000°42'714.3
2018-Feb-18 23:30N 50°42' E 000°51'714.5
2018-Feb-18 23:00N 50°46' E 001°01'815.4
2018-Feb-18 22:29N 50°51' E 001°11'816.6
2018-Feb-18 22:00N 50°56' E 001°20'918.6
2018-Feb-18 21:30N 51°03' E 001°30'918.9
2018-Feb-18 21:00N 51°10' E 001°40'918.2
2018-Feb-18 20:30N 51°17' E 001°50'917.2
2018-Feb-18 20:00N 51°24' E 001°57'816.4
2018-Feb-18 19:31N 51°30' E 002°06'815.6
2018-Feb-18 18:59N 51°36' E 002°15'715.2
2018-Feb-18 18:30N 51°42' E 002°23'815.1
2018-Feb-18 17:59N 51°47' E 002°31'2714.1
2018-Feb-18 16:04N 52°02' E 003°08'214.6
2018-Feb-18 15:54N 52°02' E 003°12'614.7
2018-Feb-18 15:27N 52°03' E 003°23'714.6
2018-Feb-18 15:00N 52°03' E 003°34'714.7
2018-Feb-18 14:30N 52°03' E 003°45'613.0
2018-Feb-18 14:01N 52°02' E 003°56'714.5
2018-Feb-18 13:31N 51°59' E 004°06'713.7
2018-Feb-18 13:00N 51°55' E 004°15'510.5
2018-Feb-18 12:30N 51°54' E 004°24'1 2.7
2018-Feb-18 12:00N 51°53' E 004°25'0 0.0
2018-Feb-18 11:29N 51°53' E 004°25'0 0.0
2018-Feb-18 10:59N 51°53' E 004°25'0 0.0
2018-Feb-18 10:29N 51°53' E 004°25'0 0.0
2018-Feb-18 09:59N 51°53' E 004°25'0 0.0
2018-Feb-18 09:29N 51°53' E 004°25'0 0.0
2018-Feb-18 08:59N 51°53' E 004°25'0 0.0
2018-Feb-18 08:29N 51°53' E 004°25'0 0.0
2018-Feb-18 07:59N 51°53' E 004°25'0 0.0
2018-Feb-18 07:29N 51°53' E 004°25'0 0.0
2018-Feb-18 06:59N 51°53' E 004°25'0 0.0
2018-Feb-18 06:29N 51°53' E 004°25'0 0.0
2018-Feb-18 05:59N 51°53' E 004°25'0 0.0
2018-Feb-18 05:29N 51°53' E 004°25'0 0.0
2018-Feb-18 04:59N 51°53' E 004°25'0 0.0
2018-Feb-18 04:29N 51°53' E 004°25'0 0.0
2018-Feb-18 03:59N 51°53' E 004°25'0 0.0
2018-Feb-18 03:29N 51°53' E 004°25'0 0.0
2018-Feb-18 02:59N 51°53' E 004°25'0 0.0
2018-Feb-18 02:29N 51°53' E 004°25'0 0.0
2018-Feb-18 01:59N 51°53' E 004°25'0 0.0
2018-Feb-18 01:29N 51°53' E 004°25'0 0.0
2018-Feb-18 00:59N 51°53' E 004°25'0 0.0
2018-Feb-18 00:29N 51°53' E 004°25'0 0.0
2018-Feb-17 23:59N 51°53' E 004°25'0 0.0
2018-Feb-17 23:29N 51°53' E 004°25'0 0.0
2018-Feb-17 22:59N 51°53' E 004°25'0 0.0
2018-Feb-17 22:29N 51°53' E 004°25'0 0.0
2018-Feb-17 21:59N 51°53' E 004°25'0 0.0
2018-Feb-17 21:29N 51°53' E 004°25'0 0.0
2018-Feb-17 20:59N 51°53' E 004°25'0 0.4
2018-Feb-17 20:30N 51°53' E 004°25'1 1.3
2018-Feb-17 20:00N 51°53' E 004°24'4 8.7
2018-Feb-17 19:30N 51°54' E 004°17'611.9
2018-Feb-17 19:00N 51°57' E 004°09'612.5
2018-Feb-17 18:30N 51°60' E 004°00'714.5
2018-Feb-17 18:00N 51°59' E 003°48'2 4.6
2018-Feb-17 17:30N 51°57' E 003°46'0 0.1
2018-Feb-17 17:00N 51°57' E 003°46'0 0.0
2018-Feb-17 16:30N 51°57' E 003°46'0 0.1
2018-Feb-17 16:00N 51°57' E 003°46'0 0.1
2018-Feb-17 15:30N 51°57' E 003°46'0 0.0
2018-Feb-17 14:57N 51°57' E 003°46'0 0.0
2018-Feb-17 14:24N 51°57' E 003°46'0 0.1
2018-Feb-17 14:00N 51°57' E 003°46'1 2.4
2018-Feb-17 13:30N 51°58' E 003°45'811.9
2018-Feb-17 12:52N 51°57' E 003°32'3 7.2
2018-Feb-17 12:30N 51°56' E 003°28'3 6.9
2018-Feb-17 12:00N 51°55' E 003°23'36 9.2
2018-Feb-17 08:05N 51°41' E 002°30'1 9.8
2018-Feb-17 07:58N 51°40' E 002°28'510.0
2018-Feb-17 07:29N 51°37' E 002°23'510.3
2018-Feb-17 07:00N 51°33' E 002°17'510.7
2018-Feb-17 06:30N 51°29' E 002°11'611.2
2018-Feb-17 06:01N 51°25' E 002°05'4 8.8
2018-Feb-17 05:30N 51°25' E 001°58'510.9
2018-Feb-17 05:00N 51°28' E 001°51'511.0
2018-Feb-17 04:30N 51°29' E 001°42'611.9
2018-Feb-17 04:00N 51°27' E 001°33'4 8.4
2018-Feb-17 03:30N 51°27' E 001°26'815.6
2018-Feb-17 03:00N 51°29' E 001°14'612.5
2018-Feb-17 02:30N 51°29' E 001°04'714.7
2018-Feb-17 02:01N 51°29' E 000°52'815.5
2018-Feb-17 01:30N 51°30' E 000°40'612.9
2018-Feb-17 01:01N 51°30' E 000°29'510.8
2018-Feb-17 00:31N 51°27' E 000°22'2 3.4
2018-Feb-17 00:01N 51°28' E 000°20'0 0.0
2018-Feb-16 23:30N 51°28' E 000°20'0 0.0
2018-Feb-16 23:00N 51°28' E 000°20'0 0.0
2018-Feb-16 22:30N 51°28' E 000°20'0 0.0
2018-Feb-16 22:00N 51°28' E 000°20'0 0.0
2018-Feb-16 21:31N 51°28' E 000°20'0 0.0
2018-Feb-16 21:01N 51°28' E 000°20'0 0.0
2018-Feb-16 20:31N 51°28' E 000°20'0 0.0
2018-Feb-16 20:00N 51°28' E 000°20'0 0.0
2018-Feb-16 19:31N 51°28' E 000°20'0 0.0
2018-Feb-16 19:01N 51°28' E 000°20'0 0.0
2018-Feb-16 18:30N 51°28' E 000°20'0 0.0
2018-Feb-16 18:01N 51°28' E 000°20'0 0.0
2018-Feb-16 17:30N 51°28' E 000°20'0 0.0
2018-Feb-16 17:00N 51°28' E 000°20'0 0.0
2018-Feb-16 16:30N 51°28' E 000°20'0 0.0
2018-Feb-16 16:01N 51°28' E 000°20'0 0.0
2018-Feb-16 15:30N 51°28' E 000°20'0 0.0
2018-Feb-16 15:00N 51°28' E 000°20'0 0.1
2018-Feb-16 14:31N 51°28' E 000°20'3 5.9
2018-Feb-16 14:01N 51°27' E 000°25'713.1
2018-Feb-16 13:31N 51°30' E 000°34'815.6
2018-Feb-16 13:00N 51°29' E 000°46'815.9
2018-Feb-16 12:30N 51°29' E 000°59'816.5
2018-Feb-16 12:01N 51°29' E 001°12'917.0
2018-Feb-16 11:30N 51°28' E 001°26'714.2
2018-Feb-16 11:01N 51°23' E 001°33'815.3
2018-Feb-16 10:31N 51°16' E 001°38'714.9
2018-Feb-16 10:00N 51°08' E 001°40'714.3
2018-Feb-16 09:30N 51°02' E 001°35'714.4
2018-Feb-16 09:00N 50°57' E 001°27'713.6
2018-Feb-16 08:30N 50°50' E 001°23'714.1
2018-Feb-16 08:00N 50°44' E 001°20'714.7
2018-Feb-16 07:30N 50°39' E 001°12'815.0
2018-Feb-16 06:59N 50°33' E 001°03'1214.6
2018-Feb-16 06:09N 50°28' E 000°45'215.2
2018-Feb-16 06:00N 50°28' E 000°42'715.1
2018-Feb-16 05:30N 50°26' E 000°31'814.7
2018-Feb-16 04:59N 50°24' E 000°19'714.3
2018-Feb-16 04:30N 50°22' E 000°09'814.3
2018-Feb-16 03:56N 50°20' W 000°04'614.3
2018-Feb-16 03:30N 50°19' W 000°13'2813.7
2018-Feb-16 01:28N 50°10' W 000°55'613.7
2018-Feb-16 01:00N 50°08' W 001°04'714.1
2018-Feb-16 00:30N 50°06' W 001°15'714.5
2018-Feb-16 00:00N 50°04' W 001°25'714.8
2018-Feb-15 23:30N 50°02' W 001°36'715.0
2018-Feb-15 23:00N 49°60' W 001°48'1315.8
2018-Feb-15 22:11N 49°56' W 002°07'316.4
2018-Feb-15 22:00N 49°55' W 002°12'1016.5
2018-Feb-15 21:22N 49°52' W 002°27'616.5
2018-Feb-15 20:59N 49°51' W 002°36'816.6
2018-Feb-15 20:30N 49°48' W 002°48'14915.1
2018-Feb-15 10:38N 48°16' W 005°47'56314.6
2018-Feb-13 20:11N 39°21' W 009°52'314.5
2018-Feb-13 20:00N 39°19' W 009°52'714.9
2018-Feb-13 19:30N 39°11' W 009°52'714.5
2018-Feb-13 19:00N 39°04' W 009°51'714.5
2018-Feb-13 18:30N 38°57' W 009°51'914.6
2018-Feb-13 17:55N 38°48' W 009°51'914.7
2018-Feb-13 17:18N 38°39' W 009°50'513.9
2018-Feb-13 16:57N 38°36' W 009°46'714.6
2018-Feb-13 16:30N 38°32' W 009°39'714.6
2018-Feb-13 16:00N 38°28' W 009°31'714.8
2018-Feb-13 15:30N 38°23' W 009°24'714.5
2018-Feb-13 15:00N 38°21' W 009°15'815.1
2018-Feb-13 14:30N 38°21' W 009°06'714.7
2018-Feb-13 14:00N 38°26' W 008°58'612.1
2018-Feb-13 13:30N 38°31' W 008°53'1 0.3
2018-Feb-13 10:18N 38°31' W 008°52'0 0.0
2018-Feb-13 09:52N 38°31' W 008°52'0 0.0
2018-Feb-13 09:26N 38°31' W 008°52'0 0.0
2018-Feb-13 07:05N 38°31' W 008°52'0 2.7
2018-Feb-13 07:00N 38°31' W 008°53'510.1
2018-Feb-13 06:30N 38°28' W 008°58'611.3
2018-Feb-13 06:00N 38°22' W 009°00'612.5
2018-Feb-13 05:30N 38°16' W 009°02'612.9
2018-Feb-13 05:00N 38°10' W 009°04'713.2
2018-Feb-13 04:30N 38°04' W 009°06'713.3
2018-Feb-13 04:00N 37°57' W 009°09'815.3
2018-Feb-13 03:30N 37°50' W 009°11'815.1
2018-Feb-13 03:00N 37°43' W 009°14'20412.0
2018-Feb-12 09:58N 35°58' W 005°35'714.4
2018-Feb-12 09:30N 35°60' W 005°28'713.4
2018-Feb-12 09:00N 36°02' W 005°20'226 8.2
2018-Feb-11 05:19N 37°31' W 001°00'22111.1
2018-Feb-10 09:28N 36°01' W 005°12'714.9
2018-Feb-10 09:00N 35°59' W 005°21'714.4
2018-Feb-10 08:31N 35°57' W 005°29'  

Dump ship's entire track history